createdAt,value
2023-05-16T00:03:38.189Z,23.67
2023-05-16T00:07:43.845Z,24.17
2023-05-16T00:11:46.931Z,23.50
2023-05-16T00:15:49.564Z,23.77
2023-05-16T00:19:58.208Z,22.67
2023-05-16T00:24:00.634Z,23.70
2023-05-16T00:28:02.857Z,24.02
2023-05-16T00:32:08.687Z,24.02
2023-05-16T00:36:11.230Z,24.42
2023-05-16T00:40:14.176Z,22.90
2023-05-16T00:44:17.848Z,22.30
2023-05-16T00:48:19.987Z,23.08
2023-05-16T00:52:22.432Z,22.17
2023-05-16T00:56:24.483Z,21.70
2023-05-16T01:00:27.271Z,21.70
2023-05-16T01:04:29.574Z,21.83
2023-05-16T01:08:31.615Z,22.85
2023-05-16T01:12:50.513Z,24.05
2023-05-16T01:17:01.802Z,24.92
2023-05-16T01:21:13.415Z,25.50
2023-05-16T01:25:36.673Z,26.08
2023-05-16T01:29:39.070Z,25.70
2023-05-16T01:33:41.178Z,26.67
2023-05-16T01:38:12.768Z,25.58
2023-05-16T01:42:16.216Z,25.80
2023-05-16T01:46:26.262Z,25.25
2023-05-16T01:50:34.178Z,25.00
2023-05-16T01:54:39.411Z,26.55
2023-05-16T01:58:41.853Z,25.02
2023-05-16T02:02:43.909Z,23.55
2023-05-16T02:06:46.157Z,23.02
2023-05-16T02:10:48.155Z,23.55
2023-05-16T02:14:50.164Z,22.90
2023-05-16T02:18:52.596Z,22.88
2023-05-16T02:22:54.647Z,22.27
2023-05-16T02:26:56.644Z,22.40
2023-05-16T02:31:01.962Z,21.90
2023-05-16T02:35:04.606Z,22.38
2023-05-16T02:39:07.699Z,22.20
2023-05-16T02:43:10.151Z,22.33
2023-05-16T02:47:12.188Z,21.88
2023-05-16T02:51:14.210Z,22.02
2023-05-16T02:55:22.318Z,22.60
2023-05-16T02:59:24.842Z,21.77
2023-05-16T03:03:27.264Z,21.73
2023-05-16T03:07:29.344Z,21.33
2023-05-16T03:11:36.877Z,22.05
2023-05-16T03:15:39.138Z,21.65
2023-05-16T03:19:41.254Z,21.40
2023-05-16T03:23:43.519Z,22.02
2023-05-16T03:27:45.586Z,20.33
2023-05-16T03:31:47.782Z,20.27
2023-05-16T03:35:50.798Z,20.23
2023-05-16T03:39:52.829Z,18.92
2023-05-16T03:43:54.857Z,18.27
2023-05-16T03:47:57.485Z,17.33
2023-05-16T03:51:59.535Z,16.75
2023-05-16T03:56:01.524Z,15.52
2023-05-16T04:00:07.705Z,15.00
2023-05-16T04:04:14.162Z,14.23
2023-05-16T04:08:16.197Z,13.70
2023-05-16T04:12:18.228Z,13.63
2023-05-16T04:16:20.313Z,14.15
2023-05-16T04:20:22.363Z,14.38
2023-05-16T04:24:26.523Z,13.88
2023-05-16T04:28:28.557Z,13.45
2023-05-16T04:32:30.736Z,12.07
2023-05-16T04:36:32.847Z,11.77
2023-05-16T04:40:35.241Z,11.13
2023-05-16T04:44:37.450Z,9.98
2023-05-16T04:48:39.474Z,10.63
2023-05-16T04:52:41.696Z,9.35
2023-05-16T04:56:43.825Z,7.45
2023-05-16T05:00:46.015Z,6.60
2023-05-16T05:04:48.164Z,6.88
2023-05-16T05:08:50.386Z,6.15
2023-05-16T05:12:52.429Z,6.70
2023-05-16T05:16:54.655Z,5.45
2023-05-16T05:20:56.766Z,4.85
2023-05-16T05:24:58.861Z,4.38
2023-05-16T05:29:05.376Z,3.70
2023-05-16T05:33:08.227Z,3.33
2023-05-16T05:37:10.270Z,3.10
2023-05-16T05:41:12.330Z,1.95
2023-05-16T05:45:15.363Z,2.00
2023-05-16T05:49:17.458Z,1.33
2023-05-16T05:53:19.503Z,1.10
2023-05-16T05:57:21.522Z,0.88
2023-05-16T06:01:24.481Z,0.80
2023-05-16T06:05:26.949Z,0.70
2023-05-16T06:09:29.176Z,1.80
2023-05-16T06:13:31.181Z,1.50
2023-05-16T06:17:33.367Z,0.70
2023-05-16T06:21:35.602Z,0.55
2023-05-16T06:25:37.663Z,0.50
2023-05-16T06:29:39.677Z,0.60
2023-05-16T06:33:41.903Z,0.68
2023-05-16T06:37:43.918Z,0.70
2023-05-16T06:41:46.030Z,0.77
2023-05-16T06:45:51.583Z,0.47
2023-05-16T06:49:53.702Z,0.60
2023-05-16T06:53:55.830Z,0.50
2023-05-16T06:57:57.910Z,0.30
2023-05-16T07:02:00.032Z,0.20
2023-05-16T07:06:02.110Z,0.20
2023-05-16T07:10:04.739Z,0.22
2023-05-16T07:14:06.803Z,0.20
2023-05-16T07:18:08.927Z,0.30
2023-05-16T07:22:12.144Z,0.32
2023-05-16T07:26:14.231Z,0.30
2023-05-16T07:30:16.348Z,0.20
2023-05-16T07:34:18.502Z,0.20
2023-05-16T07:38:21.494Z,0.30
2023-05-16T07:42:25.143Z,0.32
2023-05-16T07:46:27.346Z,0.30
2023-05-16T07:50:29.502Z,0.30
2023-05-16T07:54:33.277Z,0.70
2023-05-16T07:58:35.666Z,0.45
2023-05-16T08:02:38.066Z,0.60
2023-05-16T08:06:40.260Z,0.38
2023-05-16T08:10:42.315Z,0.93
2023-05-16T08:14:44.359Z,2.33
2023-05-16T08:18:47.968Z,2.00
2023-05-16T08:22:50.084Z,0.60
2023-05-16T08:26:52.158Z,0.82
2023-05-16T08:30:54.499Z,0.40
2023-05-16T08:34:56.674Z,0.98
2023-05-16T08:38:58.689Z,0.50
2023-05-16T08:43:01.261Z,0.65
2023-05-16T08:47:18.831Z,0.60
2023-05-16T08:55:26.827Z,0.60
2023-05-16T08:59:29.266Z,0.80
2023-05-16T09:03:31.441Z,0.60
2023-05-16T09:07:33.675Z,0.60
2023-05-16T09:11:37.162Z,0.88
2023-05-16T09:15:39.393Z,1.10
2023-05-16T09:19:43.639Z,0.80
2023-05-16T09:23:49.455Z,0.93
2023-05-16T09:27:56.035Z,0.90
2023-05-16T09:32:05.730Z,1.20
2023-05-16T09:36:08.361Z,1.20
2023-05-16T09:40:10.629Z,1.27
2023-05-16T09:44:12.935Z,1.45
2023-05-16T09:48:16.773Z,1.40
2023-05-16T09:52:19.172Z,1.52
2023-05-16T09:56:21.518Z,1.08
2023-05-16T10:00:29.844Z,1.40
2023-05-16T10:04:32.020Z,1.10
2023-05-16T10:08:36.593Z,1.67
2023-05-16T10:12:39.104Z,0.90
2023-05-16T10:16:43.771Z,1.30
2023-05-16T10:20:49.205Z,1.70
2023-05-16T10:25:07.030Z,1.08
2023-05-16T10:29:10.224Z,0.90
2023-05-16T10:33:17.195Z,0.93
2023-05-16T10:37:19.322Z,0.70
2023-05-16T10:41:22.065Z,0.90
2023-05-16T10:45:24.679Z,1.00
2023-05-16T10:49:27.735Z,1.40
2023-05-16T10:53:34.557Z,1.60
2023-05-16T10:57:36.884Z,2.78
2023-05-16T11:01:41.376Z,1.42
2023-05-16T11:05:43.872Z,0.90
2023-05-16T11:09:46.524Z,1.35
2023-05-16T11:13:55.637Z,1.30
2023-05-16T11:18:27.058Z,0.98
2023-05-16T11:22:29.688Z,0.77
2023-05-16T11:26:31.954Z,0.75
2023-05-16T11:30:34.145Z,1.02
2023-05-16T11:34:38.001Z,0.70
2023-05-16T11:38:43.394Z,0.70
2023-05-16T11:42:50.506Z,0.90
2023-05-16T11:46:52.747Z,1.10
2023-05-16T11:50:55.162Z,0.77
2023-05-16T11:55:01.292Z,0.68
2023-05-16T11:59:03.724Z,1.00
2023-05-16T12:03:06.575Z,0.85
2023-05-16T12:07:08.806Z,0.60
2023-05-16T12:11:10.884Z,0.73
2023-05-16T12:15:14.012Z,1.02
2023-05-16T12:19:16.514Z,0.57
2023-05-16T12:23:18.740Z,0.70
2023-05-16T12:27:27.991Z,0.57
2023-05-16T12:31:32.581Z,1.00
2023-05-16T12:35:37.361Z,0.70
2023-05-16T12:39:39.556Z,1.02
2023-05-16T12:43:41.674Z,0.65
2023-05-16T12:47:44.336Z,0.68
2023-05-16T12:51:58.527Z,0.70
2023-05-16T12:56:00.664Z,1.25
2023-05-16T13:00:02.805Z,0.82
2023-05-16T13:04:05.276Z,0.90
2023-05-16T13:08:07.663Z,0.55
2023-05-16T13:12:09.834Z,0.82
2023-05-16T13:16:11.987Z,0.63
2023-05-16T13:20:15.009Z,0.65
2023-05-16T13:24:17.489Z,0.70
2023-05-16T13:28:19.553Z,0.63
2023-05-16T13:32:21.671Z,0.70
2023-05-16T13:36:23.725Z,0.85
2023-05-16T13:40:25.823Z,0.60
2023-05-16T13:44:27.942Z,0.60
2023-05-16T13:48:29.978Z,0.65
2023-05-16T13:52:32.188Z,0.52
2023-05-16T13:56:34.255Z,0.80
2023-05-16T14:00:45.166Z,0.80
2023-05-16T14:04:49.895Z,0.70
2023-05-16T14:08:52.330Z,0.50
2023-05-16T14:12:54.380Z,0.50
2023-05-16T14:16:56.501Z,0.75
2023-05-16T14:20:58.829Z,0.70
2023-05-16T14:25:00.997Z,0.75
2023-05-16T14:29:03.147Z,0.90
2023-05-16T14:33:06.173Z,1.02
2023-05-16T14:37:10.218Z,0.70
2023-05-16T14:41:12.457Z,0.85
2023-05-16T14:45:15.194Z,0.65
2023-05-16T14:49:17.411Z,0.55
2023-05-16T14:53:21.476Z,0.43
2023-05-16T14:57:23.552Z,0.55
2023-05-16T15:01:25.943Z,0.68
2023-05-16T15:05:29.281Z,0.80
2023-05-16T15:09:31.505Z,0.60
2023-05-16T15:13:33.528Z,0.50
2023-05-16T15:17:35.624Z,0.70
2023-05-16T15:21:37.814Z,0.63
2023-05-16T15:25:39.874Z,0.60
2023-05-16T15:29:42.106Z,0.43
2023-05-16T15:33:48.133Z,0.60
2023-05-16T15:37:52.824Z,0.40
2023-05-16T15:45:59.998Z,0.50
2023-05-16T15:50:02.378Z,0.60
2023-05-16T15:54:04.933Z,0.80
2023-05-16T15:58:07.007Z,0.50
2023-05-16T16:02:09.123Z,0.60
2023-05-16T16:06:11.350Z,0.50
2023-05-16T16:10:13.481Z,0.60
2023-05-16T16:14:15.841Z,1.75
2023-05-16T16:18:17.884Z,0.70
2023-05-16T16:22:22.284Z,1.02
2023-05-16T16:26:24.837Z,0.63
2023-05-16T16:30:27.763Z,1.02
2023-05-16T16:34:29.835Z,0.55
2023-05-16T16:38:31.857Z,0.50
2023-05-16T16:42:33.880Z,0.57
2023-05-16T16:46:36.266Z,0.50
2023-05-16T16:50:38.392Z,0.63
2023-05-16T16:54:40.668Z,0.80
2023-05-16T16:58:42.756Z,0.30
2023-05-16T17:02:44.971Z,0.70
2023-05-16T17:06:48.659Z,0.50
2023-05-16T17:10:51.008Z,0.50
2023-05-16T17:14:53.580Z,0.70
2023-05-16T17:18:56.342Z,0.60
2023-05-16T17:22:58.467Z,0.50
2023-05-16T17:27:01.647Z,0.73
2023-05-16T17:31:03.970Z,0.60
2023-05-16T17:35:06.479Z,0.52
2023-05-16T17:39:10.477Z,0.70
2023-05-16T17:43:12.594Z,0.40
2023-05-16T17:47:14.736Z,0.55
2023-05-16T17:51:16.772Z,0.50
2023-05-16T17:55:18.836Z,0.60
2023-05-16T17:59:21.044Z,0.52
2023-05-16T18:03:23.209Z,0.50
2023-05-16T18:07:26.573Z,0.65
2023-05-16T18:11:28.725Z,0.63
2023-05-16T18:15:30.808Z,34.03
2023-05-16T18:19:32.936Z,1.73
2023-05-16T18:23:35.032Z,0.82
2023-05-16T18:27:37.856Z,0.50
2023-05-16T18:31:42.254Z,0.60
2023-05-16T18:35:44.268Z,0.80
2023-05-16T18:39:48.385Z,0.70
2023-05-16T18:43:50.398Z,0.90
2023-05-16T18:47:53.083Z,0.50
2023-05-16T18:51:55.866Z,0.60
2023-05-16T18:55:58.547Z,0.73
2023-05-16T19:00:01.595Z,0.60
2023-05-16T19:04:04.087Z,0.60
2023-05-16T19:08:07.017Z,0.50
2023-05-16T19:12:09.168Z,0.60
2023-05-16T19:16:11.316Z,0.60
2023-05-16T19:20:13.335Z,0.65
2023-05-16T19:24:15.996Z,0.55
2023-05-16T19:28:18.129Z,0.75
2023-05-16T19:32:20.381Z,0.73
2023-05-16T19:36:22.520Z,0.68
2023-05-16T19:40:24.560Z,0.80
2023-05-16T19:44:26.671Z,0.73
2023-05-16T19:48:29.195Z,0.80
2023-05-16T19:52:31.355Z,0.68
2023-05-16T19:56:33.563Z,0.80
2023-05-16T20:00:35.724Z,1.00
2023-05-16T20:04:37.883Z,0.70
2023-05-16T20:08:39.951Z,1.00
2023-05-16T20:12:42.250Z,0.60
2023-05-16T20:16:44.310Z,0.80
2023-05-16T20:20:46.430Z,0.65
2023-05-16T20:24:48.449Z,0.90
2023-05-16T20:28:50.648Z,0.63
2023-05-16T20:32:52.989Z,0.70
2023-05-16T20:36:55.097Z,0.90
2023-05-16T20:40:57.253Z,0.90
2023-05-16T20:44:59.425Z,1.00
2023-05-16T20:49:01.696Z,1.00
2023-05-16T20:53:03.867Z,0.75
2023-05-16T20:57:06.153Z,0.90
2023-05-16T21:01:08.935Z,1.00
2023-05-16T21:05:34.703Z,0.80
2023-05-16T21:09:33.787Z,0.77
2023-05-16T21:13:35.848Z,0.93
2023-05-16T21:17:39.431Z,1.00
2023-05-16T21:21:41.643Z,0.90
2023-05-16T21:25:43.727Z,0.70
2023-05-16T21:29:45.768Z,0.90
2023-05-16T21:33:47.956Z,0.90
2023-05-16T21:37:49.985Z,1.13
2023-05-16T21:41:52.201Z,0.80
2023-05-16T21:45:54.246Z,0.77
2023-05-16T21:49:56.302Z,1.02
2023-05-16T21:53:58.387Z,1.10
2023-05-16T21:58:01.609Z,0.90
2023-05-16T22:02:03.809Z,1.10
2023-05-16T22:06:06.166Z,0.93
2023-05-16T22:10:10.592Z,1.02
2023-05-16T22:14:12.717Z,0.90
2023-05-16T22:18:14.963Z,1.02
2023-05-16T22:22:17.164Z,1.35
2023-05-16T22:26:19.203Z,1.20
2023-05-16T22:30:21.361Z,1.40
2023-05-16T22:34:23.756Z,1.23
2023-05-16T22:38:25.774Z,1.50
2023-05-16T22:42:28.509Z,1.30
2023-05-16T22:46:30.621Z,1.48
2023-05-16T22:50:32.688Z,1.30
2023-05-16T22:54:34.719Z,1.40
2023-05-16T22:58:36.776Z,1.35
2023-05-16T23:02:39.209Z,1.45
2023-05-16T23:06:41.375Z,1.40
2023-05-16T23:10:43.426Z,1.25
2023-05-16T23:14:45.550Z,1.20
2023-05-16T23:18:47.717Z,1.20
2023-05-16T23:22:49.820Z,1.95
2023-05-16T23:26:51.943Z,1.40
2023-05-16T23:30:54.146Z,1.70
2023-05-16T23:34:56.667Z,1.80
2023-05-16T23:38:58.792Z,1.50
2023-05-16T23:43:00.867Z,1.60
2023-05-16T23:47:02.991Z,1.80
2023-05-16T23:51:07.450Z,1.70
2023-05-16T23:55:09.875Z,1.45
2023-05-16T23:59:11.925Z,1.52
